sensor_id;sensor_type;location;lat;lon;timestamp;pressure;altitude;pressure_sealevel;temperature;humidity
30714;BME280;17465;47.934;33.430;2022-08-25T00:00:09;100095.61;;;21.55;46.42
30714;BME280;17465;47.934;33.430;2022-08-25T00:02:40;100095.61;;;21.55;46.42
30714;BME280;17465;47.934;33.430;2022-08-25T00:05:13;100087.86;;;21.41;46.23
30714;BME280;17465;47.934;33.430;2022-08-25T00:07:45;100087.86;;;21.41;46.23
30714;BME280;17465;47.934;33.430;2022-08-25T00:10:16;100090.45;;;21.33;47.79
30714;BME280;17465;47.934;33.430;2022-08-25T00:12:46;100090.45;;;21.33;47.79
30714;BME280;17465;47.934;33.430;2022-08-25T00:15:17;100083.67;;;21.45;46.15
30714;BME280;17465;47.934;33.430;2022-08-25T00:17:48;100083.67;;;21.45;46.15
30714;BME280;17465;47.934;33.430;2022-08-25T00:20:20;100086.86;;;21.40;50.26
30714;BME280;17465;47.934;33.430;2022-08-25T00:22:51;100088.47;;;21.37;47.80
30714;BME280;17465;47.934;33.430;2022-08-25T00:25:21;100088.55;;;21.21;48.29
30714;BME280;17465;47.934;33.430;2022-08-25T00:27:52;100093.02;;;21.26;47.41
30714;BME280;17465;47.934;33.430;2022-08-25T00:30:23;100093.42;;;21.24;48.28
30714;BME280;17465;47.934;33.430;2022-08-25T00:32:53;100088.90;;;21.13;49.00
30714;BME280;17465;47.934;33.430;2022-08-25T00:35:27;100088.90;;;21.13;49.00
30714;BME280;17465;47.934;33.430;2022-08-25T00:37:57;100093.02;;;21.26;47.33
30714;BME280;17465;47.934;33.430;2022-08-25T00:40:28;100088.30;;;21.17;48.47
30714;BME280;17465;47.934;33.430;2022-08-25T00:42:59;100091.09;;;21.10;49.09
30714;BME280;17465;47.934;33.430;2022-08-25T00:45:30;100091.80;;;21.00;47.66
30714;BME280;17465;47.934;33.430;2022-08-25T00:48:01;100091.80;;;21.00;47.66
30714;BME280;17465;47.934;33.430;2022-08-25T00:50:34;100092.71;;;21.11;48.70
30714;BME280;17465;47.934;33.430;2022-08-25T00:53:06;100097.66;;;21.01;49.66
30714;BME280;17465;47.934;33.430;2022-08-25T00:55:39;100088.14;;;20.96;49.00
30714;BME280;17465;47.934;33.430;2022-08-25T00:58:21;100089.97;;;20.98;48.82
30714;BME280;17465;47.934;33.430;2022-08-25T01:00:54;100089.97;;;20.98;48.82
30714;BME280;17465;47.934;33.430;2022-08-25T01:03:28;100087.12;;;20.91;50.74
30714;BME280;17465;47.934;33.430;2022-08-25T01:06:02;100087.12;;;20.91;50.74
30714;BME280;17465;47.934;33.430;2022-08-25T01:08:34;100091.98;;;20.94;49.29
30714;BME280;17465;47.934;33.430;2022-08-25T01:11:07;100084.16;;;21.00;50.92
30714;BME280;17465;47.934;33.430;2022-08-25T01:13:43;100081.27;;;20.90;49.65
30714;BME280;17465;47.934;33.430;2022-08-25T01:16:15;100081.17;;;20.79;48.20
30714;BME280;17465;47.934;33.430;2022-08-25T01:18:49;100069.81;;;20.76;48.84
30714;BME280;17465;47.934;33.430;2022-08-25T01:21:23;100069.81;;;20.76;48.84
30714;BME280;17465;47.934;33.430;2022-08-25T01:23:55;100082.34;;;20.98;47.83
30714;BME280;17465;47.934;33.430;2022-08-25T01:26:29;100074.35;;;20.84;51.42
30714;BME280;17465;47.934;33.430;2022-08-25T01:29:02;100074.35;;;20.84;51.42
30714;BME280;17465;47.934;33.430;2022-08-25T01:31:34;100079.58;;;20.82;49.59
30714;BME280;17465;47.934;33.430;2022-08-25T01:34:06;100079.58;;;20.82;49.59
30714;BME280;17465;47.934;33.430;2022-08-25T01:36:38;100072.63;;;20.76;51.84
30714;BME280;17465;47.934;33.430;2022-08-25T01:39:10;100072.63;;;20.76;51.84
30714;BME280;17465;47.934;33.430;2022-08-25T01:44:37;100080.48;;;20.93;48.99
30714;BME280;17465;47.934;33.430;2022-08-25T01:47:08;100085.64;;;20.84;51.44
30714;BME280;17465;47.934;33.430;2022-08-25T01:49:40;100083.61;;;20.84;51.72
30714;BME280;17465;47.934;33.430;2022-08-25T01:52:27;100083.61;;;20.84;51.72
30714;BME280;17465;47.934;33.430;2022-08-25T01:54:56;100084.50;;;20.92;49.52
30714;BME280;17465;47.934;33.430;2022-08-25T01:57:29;100074.80;;;20.69;51.75
30714;BME280;17465;47.934;33.430;2022-08-25T02:00:00;100076.20;;;20.69;51.75
30714;BME280;17465;47.934;33.430;2022-08-25T02:02:30;100086.00;;;20.62;51.69
30714;BME280;17465;47.934;33.430;2022-08-25T02:05:02;100075.53;;;20.59;51.57
30714;BME280;17465;47.934;33.430;2022-08-25T02:07:34;100075.53;;;20.59;51.57
30714;BME280;17465;47.934;33.430;2022-08-25T02:10:06;100076.89;;;20.56;54.16
30714;BME280;17465;47.934;33.430;2022-08-25T02:12:38;100076.89;;;20.56;54.16
30714;BME280;17465;47.934;33.430;2022-08-25T02:15:09;100080.13;;;20.58;50.99
30714;BME280;17465;47.934;33.430;2022-08-25T02:17:41;100077.48;;;20.75;49.57
30714;BME280;17465;47.934;33.430;2022-08-25T02:20:12;100077.48;;;20.75;49.57
30714;BME280;17465;47.934;33.430;2022-08-25T02:22:43;100078.18;;;20.65;50.12
30714;BME280;17465;47.934;33.430;2022-08-25T02:25:16;100083.94;;;20.56;51.66
30714;BME280;17465;47.934;33.430;2022-08-25T02:27:47;100081.30;;;20.53;53.82
30714;BME280;17465;47.934;33.430;2022-08-25T02:30:17;100081.30;;;20.53;53.82
30714;BME280;17465;47.934;33.430;2022-08-25T02:32:48;100079.69;;;20.52;53.71
30714;BME280;17465;47.934;33.430;2022-08-25T02:35:19;100078.04;;;20.48;52.96
30714;BME280;17465;47.934;33.430;2022-08-25T02:37:52;100085.11;;;20.31;55.28
30714;BME280;17465;47.934;33.430;2022-08-25T02:40:23;100088.25;;;20.23;54.36
30714;BME280;17465;47.934;33.430;2022-08-25T02:42:54;100080.50;;;20.17;53.07
30714;BME280;17465;47.934;33.430;2022-08-25T02:45:25;100088.73;;;20.32;53.64
30714;BME280;17465;47.934;33.430;2022-08-25T02:47:55;100087.39;;;20.19;54.59
30714;BME280;17465;47.934;33.430;2022-08-25T02:50:26;100092.08;;;20.24;56.45
30714;BME280;17465;47.934;33.430;2022-08-25T02:52:57;100086.33;;;20.14;54.49
30714;BME280;17465;47.934;33.430;2022-08-25T02:55:28;100091.10;;;20.10;55.16
30714;BME280;17465;47.934;33.430;2022-08-25T02:58:00;100091.16;;;20.14;56.98
30714;BME280;17465;47.934;33.430;2022-08-25T03:00:31;100091.16;;;20.14;56.98
30714;BME280;17465;47.934;33.430;2022-08-25T03:03:04;100086.35;;;20.18;57.12
30714;BME280;17465;47.934;33.430;2022-08-25T03:05:34;100085.77;;;20.18;55.76
30714;BME280;17465;47.934;33.430;2022-08-25T03:08:06;100086.84;;;20.07;55.79
30714;BME280;17465;47.934;33.430;2022-08-25T03:10:36;100086.84;;;20.07;55.79
30714;BME280;17465;47.934;33.430;2022-08-25T03:13:07;100099.95;;;20.25;55.66
30714;BME280;17465;47.934;33.430;2022-08-25T03:15:38;100093.37;;;20.14;56.78
30714;BME280;17465;47.934;33.430;2022-08-25T03:18:11;100105.86;;;20.17;57.15
30714;BME280;17465;47.934;33.430;2022-08-25T03:20:43;100121.36;;;20.17;57.15
30714;BME280;17465;47.934;33.430;2022-08-25T03:23:13;100109.42;;;20.10;57.23
30714;BME280;17465;47.934;33.430;2022-08-25T03:25:44;100109.42;;;20.10;57.23
30714;BME280;17465;47.934;33.430;2022-08-25T03:28:15;100109.08;;;20.15;58.24
30714;BME280;17465;47.934;33.430;2022-08-25T03:30:45;100116.95;;;20.16;56.23
30714;BME280;17465;47.934;33.430;2022-08-25T03:33:18;100116.95;;;20.16;56.23
30714;BME280;17465;47.934;33.430;2022-08-25T03:35:48;100112.66;;;20.12;58.90
30714;BME280;17465;47.934;33.430;2022-08-25T03:38:19;100113.49;;;20.13;58.47
30714;BME280;17465;47.934;33.430;2022-08-25T03:40:49;100113.49;;;20.13;58.47
30714;BME280;17465;47.934;33.430;2022-08-25T03:43:22;100112.69;;;20.32;56.74
30714;BME280;17465;47.934;33.430;2022-08-25T03:45:53;100112.69;;;20.32;56.74
30714;BME280;17465;47.934;33.430;2022-08-25T03:48:23;100116.02;;;20.41;59.14
30714;BME280;17465;47.934;33.430;2022-08-25T03:50:54;100115.91;;;20.30;59.33
30714;BME280;17465;47.934;33.430;2022-08-25T03:53:24;100100.41;;;20.30;59.33
30714;BME280;17465;47.934;33.430;2022-08-25T03:55:56;100123.81;;;20.34;59.95
30714;BME280;17465;47.934;33.430;2022-08-25T03:58:27;100123.81;;;20.34;59.95
30714;BME280;17465;47.934;33.430;2022-08-25T04:00:57;100107.69;;;20.35;60.31
30714;BME280;17465;47.934;33.430;2022-08-25T04:03:28;100123.50;;;20.43;62.13
30714;BME280;17465;47.934;33.430;2022-08-25T04:06:03;100123.50;;;20.43;62.13
30714;BME280;17465;47.934;33.430;2022-08-25T04:08:36;100113.95;;;20.54;58.58
30714;BME280;17465;47.934;33.430;2022-08-25T04:11:10;100112.56;;;20.58;60.97
30714;BME280;17465;47.934;33.430;2022-08-25T04:13:43;100112.56;;;20.58;60.97
30714;BME280;17465;47.934;33.430;2022-08-25T04:16:16;100119.14;;;20.49;59.21
30714;BME280;17465;47.934;33.430;2022-08-25T04:18:48;100118.23;;;20.61;62.55
30714;BME280;17465;47.934;33.430;2022-08-25T04:21:19;100117.08;;;20.66;62.52
30714;BME280;17465;47.934;33.430;2022-08-25T04:23:52;100123.31;;;20.65;59.04
30714;BME280;17465;47.934;33.430;2022-08-25T04:26:31;100123.31;;;20.65;59.04
30714;BME280;17465;47.934;33.430;2022-08-25T04:29:04;100128.60;;;20.70;59.10
30714;BME280;17465;47.934;33.430;2022-08-25T04:31:37;100115.98;;;20.97;57.65
30714;BME280;17465;47.934;33.430;2022-08-25T04:34:09;100115.98;;;20.97;57.65
30714;BME280;17465;47.934;33.430;2022-08-25T04:36:41;100112.41;;;21.04;58.62
30714;BME280;17465;47.934;33.430;2022-08-25T04:39:13;100118.06;;;21.31;55.42
30714;BME280;17465;47.934;33.430;2022-08-25T04:41:43;100118.06;;;21.31;55.42
30714;BME280;17465;47.934;33.430;2022-08-25T04:44:14;100113.44;;;21.62;54.74
30714;BME280;17465;47.934;33.430;2022-08-25T04:46:44;100113.75;;;21.81;55.40
30714;BME280;17465;47.934;33.430;2022-08-25T04:49:15;100104.52;;;21.94;55.94
30714;BME280;17465;47.934;33.430;2022-08-25T04:51:46;100104.52;;;21.94;55.94
30714;BME280;17465;47.934;33.430;2022-08-25T04:54:16;100111.84;;;22.02;52.89
30714;BME280;17465;47.934;33.430;2022-08-25T04:56:49;100106.61;;;22.11;53.65
30714;BME280;17465;47.934;33.430;2022-08-25T04:59:22;100109.29;;;22.24;53.14
30714;BME280;17465;47.934;33.430;2022-08-25T05:01:54;100104.33;;;22.55;54.80
30714;BME280;17465;47.934;33.430;2022-08-25T05:04:25;100104.33;;;22.55;54.80
30714;BME280;17465;47.934;33.430;2022-08-25T05:06:58;100103.14;;;22.63;56.34
30714;BME280;17465;47.934;33.430;2022-08-25T05:09:29;100109.21;;;22.79;52.73
30714;BME280;17465;47.934;33.430;2022-08-25T05:12:02;100103.36;;;23.06;52.07
30714;BME280;17465;47.934;33.430;2022-08-25T05:14:34;100104.57;;;23.43;49.62
30714;BME280;17465;47.934;33.430;2022-08-25T05:17:05;100104.57;;;23.43;49.62
30714;BME280;17465;47.934;33.430;2022-08-25T05:19:35;100097.87;;;23.49;49.29
30714;BME280;17465;47.934;33.430;2022-08-25T05:22:06;100102.48;;;23.78;47.41
30714;BME280;17465;47.934;33.430;2022-08-25T05:24:36;100104.17;;;24.08;47.13
30714;BME280;17465;47.934;33.430;2022-08-25T05:27:07;100104.17;;;24.08;47.13
30714;BME280;17465;47.934;33.430;2022-08-25T05:29:38;100103.50;;;24.26;45.14
30714;BME280;17465;47.934;33.430;2022-08-25T05:32:09;100101.99;;;24.47;45.48
30714;BME280;17465;47.934;33.430;2022-08-25T05:34:39;100101.66;;;24.67;43.95
30714;BME280;17465;47.934;33.430;2022-08-25T05:37:10;100101.66;;;24.67;43.95
30714;BME280;17465;47.934;33.430;2022-08-25T05:39:41;100099.53;;;24.78;43.86
30714;BME280;17465;47.934;33.430;2022-08-25T05:42:11;100100.08;;;24.84;45.38
30714;BME280;17465;47.934;33.430;2022-08-25T05:44:42;100101.80;;;25.00;43.45
30714;BME280;17465;47.934;33.430;2022-08-25T05:47:12;100098.06;;;25.14;43.38
30714;BME280;17465;47.934;33.430;2022-08-25T05:49:43;100100.58;;;25.27;44.18
30714;BME280;17465;47.934;33.430;2022-08-25T05:52:13;100100.22;;;25.43;43.14
30714;BME280;17465;47.934;33.430;2022-08-25T05:54:45;100116.64;;;25.44;42.46
30714;BME280;17465;47.934;33.430;2022-08-25T05:57:16;100116.64;;;25.44;42.46
30714;BME280;17465;47.934;33.430;2022-08-25T05:59:46;100106.35;;;25.75;41.36
30714;BME280;17465;47.934;33.430;2022-08-25T06:02:17;100115.77;;;26.05;42.19
30714;BME280;17465;47.934;33.430;2022-08-25T06:04:47;100116.55;;;26.39;40.61
30714;BME280;17465;47.934;33.430;2022-08-25T06:07:18;100110.54;;;26.90;38.90
30714;BME280;17465;47.934;33.430;2022-08-25T06:09:48;100111.47;;;27.44;38.29
30714;BME280;17465;47.934;33.430;2022-08-25T06:12:19;100113.56;;;27.94;37.26
30714;BME280;17465;47.934;33.430;2022-08-25T06:14:50;100117.77;;;28.28;38.59
30714;BME280;17465;47.934;33.430;2022-08-25T06:17:20;100117.78;;;29.71;34.28
30714;BME280;17465;47.934;33.430;2022-08-25T06:19:52;100117.78;;;29.71;34.28
30714;BME280;17465;47.934;33.430;2022-08-25T06:22:22;100120.95;;;29.81;34.08
30714;BME280;17465;47.934;33.430;2022-08-25T06:24:54;100120.95;;;29.81;34.08
30714;BME280;17465;47.934;33.430;2022-08-25T06:27:24;100119.08;;;29.90;32.52
30714;BME280;17465;47.934;33.430;2022-08-25T06:29:55;100136.80;;;29.85;35.77
30714;BME280;17465;47.934;33.430;2022-08-25T06:32:31;100117.94;;;30.36;32.44
30714;BME280;17465;47.934;33.430;2022-08-25T06:35:12;100119.23;;;30.68;32.54
30714;BME280;17465;47.934;33.430;2022-08-25T06:37:43;100119.67;;;30.67;32.25
30714;BME280;17465;47.934;33.430;2022-08-25T06:40:14;100128.47;;;30.93;33.02
30714;BME280;17465;47.934;33.430;2022-08-25T06:42:47;100128.47;;;30.93;33.02
30714;BME280;17465;47.934;33.430;2022-08-25T06:45:18;100122.67;;;31.26;32.29
30714;BME280;17465;47.934;33.430;2022-08-25T06:47:48;100122.29;;;31.48;31.52
30714;BME280;17465;47.934;33.430;2022-08-25T06:50:19;100122.29;;;31.48;31.52
30714;BME280;17465;47.934;33.430;2022-08-25T06:52:49;100127.22;;;31.31;30.85
30714;BME280;17465;47.934;33.430;2022-08-25T06:55:20;100113.23;;;31.50;31.13
30714;BME280;17465;47.934;33.430;2022-08-25T06:57:52;100113.23;;;31.50;31.13
30714;BME280;17465;47.934;33.430;2022-08-25T07:00:26;100121.36;;;31.64;30.88
30714;BME280;17465;47.934;33.430;2022-08-25T07:02:59;100112.92;;;31.52;31.64
30714;BME280;17465;47.934;33.430;2022-08-25T07:05:31;100115.17;;;32.04;30.55
30714;BME280;17465;47.934;33.430;2022-08-25T07:08:03;100115.48;;;32.18;28.90
30714;BME280;17465;47.934;33.430;2022-08-25T07:10:33;100102.70;;;31.81;27.38
30714;BME280;17465;47.934;33.430;2022-08-25T07:13:05;100110.35;;;32.60;29.24
30714;BME280;17465;47.934;33.430;2022-08-25T07:15:40;100110.35;;;32.60;29.24
30714;BME280;17465;47.934;33.430;2022-08-25T07:18:13;100112.08;;;32.84;29.25
30714;BME280;17465;47.934;33.430;2022-08-25T07:20:45;100099.91;;;32.75;26.99
30714;BME280;17465;47.934;33.430;2022-08-25T07:23:16;100097.65;;;33.05;25.70
30714;BME280;17465;47.934;33.430;2022-08-25T07:25:48;100097.65;;;33.05;25.70
30714;BME280;17465;47.934;33.430;2022-08-25T07:28:20;100099.89;;;32.49;25.83
30714;BME280;17465;47.934;33.430;2022-08-25T07:30:51;100085.82;;;33.08;27.04
30714;BME280;17465;47.934;33.430;2022-08-25T07:33:22;100086.14;;;33.10;25.98
30714;BME280;17465;47.934;33.430;2022-08-25T07:35:53;100088.86;;;33.04;25.92
30714;BME280;17465;47.934;33.430;2022-08-25T07:38:25;100083.30;;;33.67;27.02
30714;BME280;17465;47.934;33.430;2022-08-25T07:41:03;100077.45;;;33.40;25.49
30714;BME280;17465;47.934;33.430;2022-08-25T07:43:34;100091.28;;;33.81;26.50
30714;BME280;17465;47.934;33.430;2022-08-25T07:46:06;100064.18;;;33.38;24.25
30714;BME280;17465;47.934;33.430;2022-08-25T07:48:37;100096.34;;;32.62;25.00
30714;BME280;17465;47.934;33.430;2022-08-25T07:51:12;100053.23;;;32.67;24.67
30714;BME280;17465;47.934;33.430;2022-08-25T07:53:43;100048.59;;;33.09;26.02
30714;BME280;17465;47.934;33.430;2022-08-25T07:56:16;100056.87;;;33.55;25.62
30714;BME280;17465;47.934;33.430;2022-08-25T07:58:47;100054.31;;;33.57;28.13
30714;BME280;17465;47.934;33.430;2022-08-25T08:01:21;100047.78;;;33.83;24.26
30714;BME280;17465;47.934;33.430;2022-08-25T08:03:52;100047.78;;;33.83;24.26
30714;BME280;17465;47.934;33.430;2022-08-25T08:06:32;100041.65;;;33.59;23.50
30714;BME280;17465;47.934;33.430;2022-08-25T08:09:06;100041.65;;;33.59;23.50
30714;BME280;17465;47.934;33.430;2022-08-25T08:11:36;100032.22;;;33.45;24.66
30714;BME280;17465;47.934;33.430;2022-08-25T08:14:10;100056.58;;;33.98;24.64
30714;BME280;17465;47.934;33.430;2022-08-25T08:16:41;100027.75;;;33.93;23.40
30714;BME280;17465;47.934;33.430;2022-08-25T08:19:12;100027.75;;;33.93;23.40
30714;BME280;17465;47.934;33.430;2022-08-25T08:21:45;100031.27;;;34.15;24.55
30714;BME280;17465;47.934;33.430;2022-08-25T08:24:15;100036.57;;;33.99;23.29
30714;BME280;17465;47.934;33.430;2022-08-25T08:26:47;100036.57;;;33.99;23.29
30714;BME280;17465;47.934;33.430;2022-08-25T08:29:19;100025.69;;;34.12;24.59
30714;BME280;17465;47.934;33.430;2022-08-25T08:31:55;100025.31;;;34.82;25.02
30714;BME280;17465;47.934;33.430;2022-08-25T08:34:25;100034.81;;;34.70;23.56
30714;BME280;17465;47.934;33.430;2022-08-25T08:39:49;100021.05;;;34.01;23.10
30714;BME280;17465;47.934;33.430;2022-08-25T08:48:09;100012.05;;;34.21;21.81
30714;BME280;17465;47.934;33.430;2022-08-25T08:51:00;100009.15;;;34.26;23.63
30714;BME280;17465;47.934;33.430;2022-08-25T08:53:25;100016.72;;;34.69;22.91
30714;BME280;17465;47.934;33.430;2022-08-25T08:56:00;100014.98;;;34.54;22.95
30714;BME280;17465;47.934;33.430;2022-08-25T08:58:49;100011.05;;;35.16;22.95
30714;BME280;17465;47.934;33.430;2022-08-25T09:01:47;100011.05;;;35.16;22.95
30714;BME280;17465;47.934;33.430;2022-08-25T09:04:37;99998.73;;;35.34;22.40
30714;BME280;17465;47.934;33.430;2022-08-25T09:07:12;99998.89;;;35.07;21.45
30714;BME280;17465;47.934;33.430;2022-08-25T09:09:44;99999.24;;;35.00;23.15
30714;BME280;17465;47.934;33.430;2022-08-25T09:12:52;100009.84;;;35.50;23.57
30714;BME280;17465;47.934;33.430;2022-08-25T09:18:18;100019.75;;;35.02;23.59
30714;BME280;17465;47.934;33.430;2022-08-25T09:26:44;99985.44;;;35.04;21.65
30714;BME280;17465;47.934;33.430;2022-08-25T09:29:20;99985.44;;;35.04;21.65
30714;BME280;17465;47.934;33.430;2022-08-25T09:31:52;99995.38;;;35.74;22.05
30714;BME280;17465;47.934;33.430;2022-08-25T09:34:27;99979.73;;;35.80;20.75
30714;BME280;17465;47.934;33.430;2022-08-25T09:36:58;99979.73;;;35.80;20.75
30714;BME280;17465;47.934;33.430;2022-08-25T09:39:30;99984.67;;;35.84;22.70
30714;BME280;17465;47.934;33.430;2022-08-25T09:42:00;99988.39;;;35.99;21.09
30714;BME280;17465;47.934;33.430;2022-08-25T09:44:38;99998.67;;;36.72;23.41
30714;BME280;17465;47.934;33.430;2022-08-25T09:49:49;99983.63;;;36.54;20.74
30714;BME280;17465;47.934;33.430;2022-08-25T09:57:55;99972.07;;;36.88;23.33
30714;BME280;17465;47.934;33.430;2022-08-25T10:00:31;99971.54;;;36.94;21.72
30714;BME280;17465;47.934;33.430;2022-08-25T10:03:25;99971.54;;;36.94;21.72
30714;BME280;17465;47.934;33.430;2022-08-25T10:06:02;99982.34;;;37.23;21.47
30714;BME280;17465;47.934;33.430;2022-08-25T10:11:31;99980.01;;;36.73;21.94
30714;BME280;17465;47.934;33.430;2022-08-25T10:17:18;99969.83;;;36.53;20.77
30714;BME280;17465;47.934;33.430;2022-08-25T10:19:28;99966.77;;;36.67;20.95
30714;BME280;17465;47.934;33.430;2022-08-25T10:24:53;99965.55;;;36.83;22.28
30714;BME280;17465;47.934;33.430;2022-08-25T10:30:28;99976.83;;;37.95;21.84
30714;BME280;17465;47.934;33.430;2022-08-25T10:33:19;99972.48;;;37.85;21.10
30714;BME280;17465;47.934;33.430;2022-08-25T10:49:49;99956.78;;;37.82;20.63
30714;BME280;17465;47.934;33.430;2022-08-25T10:55:10;99949.45;;;37.76;21.36
30714;BME280;17465;47.934;33.430;2022-08-25T11:00:41;99938.63;;;38.12;20.90
30714;BME280;17465;47.934;33.430;2022-08-25T11:06:16;99921.02;;;37.25;20.00
30714;BME280;17465;47.934;33.430;2022-08-25T11:08:55;99920.67;;;37.47;21.34
30714;BME280;17465;47.934;33.430;2022-08-25T11:11:27;99920.67;;;37.47;21.34
30714;BME280;17465;47.934;33.430;2022-08-25T11:14:11;99918.98;;;37.96;19.38
30714;BME280;17465;47.934;33.430;2022-08-25T11:17:05;99918.98;;;37.96;19.38
30714;BME280;17465;47.934;33.430;2022-08-25T11:19:37;99906.48;;;37.75;21.60
30714;BME280;17465;47.934;33.430;2022-08-25T11:22:32;99912.48;;;37.46;19.07
30714;BME280;17465;47.934;33.430;2022-08-25T11:25:23;99912.48;;;37.46;19.07
30714;BME280;17465;47.934;33.430;2022-08-25T11:28:17;99915.17;;;37.75;20.46
30714;BME280;17465;47.934;33.430;2022-08-25T11:30:49;99915.17;;;37.75;20.46
30714;BME280;17465;47.934;33.430;2022-08-25T11:33:22;99897.02;;;37.39;19.51
30714;BME280;17465;47.934;33.430;2022-08-25T11:35:59;99897.02;;;37.39;19.51
30714;BME280;17465;47.934;33.430;2022-08-25T11:38:45;99897.45;;;37.93;21.47
30714;BME280;17465;47.934;33.430;2022-08-25T11:41:31;99903.16;;;38.38;20.44
30714;BME280;17465;47.934;33.430;2022-08-25T11:44:06;99892.00;;;37.85;18.80
30714;BME280;17465;47.934;33.430;2022-08-25T11:46:52;99899.06;;;38.09;19.93
30714;BME280;17465;47.934;33.430;2022-08-25T11:55:10;99895.00;;;38.11;20.60
30714;BME280;17465;47.934;33.430;2022-08-25T11:57:43;99902.66;;;37.99;18.75
30714;BME280;17465;47.934;33.430;2022-08-25T12:00:40;99895.20;;;38.33;20.62
30714;BME280;17465;47.934;33.430;2022-08-25T12:11:48;99885.93;;;38.65;20.86
30714;BME280;17465;47.934;33.430;2022-08-25T12:17:04;99896.45;;;39.20;20.41
30714;BME280;17465;47.934;33.430;2022-08-25T12:25:07;99885.70;;;38.17;20.09
30714;BME280;17465;47.934;33.430;2022-08-25T12:30:27;99875.93;;;38.30;20.51
30714;BME280;17465;47.934;33.430;2022-08-25T12:36:07;99868.77;;;38.10;20.19
30714;BME280;17465;47.934;33.430;2022-08-25T12:38:47;99859.84;;;38.29;21.76
30714;BME280;17465;47.934;33.430;2022-08-25T12:41:25;99870.41;;;38.95;21.32
30714;BME280;17465;47.934;33.430;2022-08-25T12:47:25;99866.06;;;37.86;19.88
30714;BME280;17465;47.934;33.430;2022-08-25T12:50:34;99866.06;;;37.86;19.88
30714;BME280;17465;47.934;33.430;2022-08-25T12:53:22;99857.33;;;37.60;20.93
30714;BME280;17465;47.934;33.430;2022-08-25T12:56:05;99856.56;;;38.01;19.61
30714;BME280;17465;47.934;33.430;2022-08-25T12:58:47;99856.56;;;38.01;19.61
30714;BME280;17465;47.934;33.430;2022-08-25T13:01:30;99857.09;;;38.51;20.42
30714;BME280;17465;47.934;33.430;2022-08-25T13:04:22;99853.15;;;38.33;20.19
30714;BME280;17465;47.934;33.430;2022-08-25T13:13:21;99848.14;;;38.18;19.69
30714;BME280;17465;47.934;33.430;2022-08-25T13:15:56;99857.03;;;38.40;20.00
30714;BME280;17465;47.934;33.430;2022-08-25T13:18:24;99860.31;;;37.66;19.72
30714;BME280;17465;47.934;33.430;2022-08-25T13:21:07;99855.22;;;37.45;20.07
30714;BME280;17465;47.934;33.430;2022-08-25T13:23:40;99856.39;;;37.23;20.16
30714;BME280;17465;47.934;33.430;2022-08-25T13:26:12;99859.30;;;36.94;20.74
30714;BME280;17465;47.934;33.430;2022-08-25T13:28:49;99856.13;;;37.02;20.47
30714;BME280;17465;47.934;33.430;2022-08-25T13:31:20;99856.13;;;37.02;20.47
30714;BME280;17465;47.934;33.430;2022-08-25T13:33:59;99854.67;;;37.02;19.69
30714;BME280;17465;47.934;33.430;2022-08-25T13:36:35;99854.81;;;37.58;19.60
30714;BME280;17465;47.934;33.430;2022-08-25T13:39:18;99854.81;;;37.58;19.60
30714;BME280;17465;47.934;33.430;2022-08-25T13:41:53;99849.80;;;37.43;20.33
30714;BME280;17465;47.934;33.430;2022-08-25T13:44:29;99849.80;;;37.43;20.33
30714;BME280;17465;47.934;33.430;2022-08-25T13:50:17;99845.87;;;37.36;20.68
30714;BME280;17465;47.934;33.430;2022-08-25T13:53:00;99845.65;;;37.49;20.61
30714;BME280;17465;47.934;33.430;2022-08-25T13:58:25;99849.12;;;35.90;21.14
30714;BME280;17465;47.934;33.430;2022-08-25T14:07:24;99837.80;;;36.36;22.47
30714;BME280;17465;47.934;33.430;2022-08-25T14:12:27;99812.20;;;35.47;22.67
30714;BME280;17465;47.934;33.430;2022-08-25T14:15:11;99838.23;;;35.61;23.35
30714;BME280;17465;47.934;33.430;2022-08-25T14:17:32;99829.12;;;35.73;22.36
30714;BME280;17465;47.934;33.430;2022-08-25T14:20:12;99829.12;;;35.73;22.36
30714;BME280;17465;47.934;33.430;2022-08-25T14:22:38;99835.28;;;35.51;23.21
30714;BME280;17465;47.934;33.430;2022-08-25T14:25:10;99835.28;;;35.51;23.21
30714;BME280;17465;47.934;33.430;2022-08-25T14:27:43;99829.27;;;35.59;23.41
30714;BME280;17465;47.934;33.430;2022-08-25T14:30:15;99834.25;;;35.06;23.17
30714;BME280;17465;47.934;33.430;2022-08-25T14:32:47;99825.98;;;35.18;22.76
30714;BME280;17465;47.934;33.430;2022-08-25T14:35:21;99830.95;;;34.99;23.05
30714;BME280;17465;47.934;33.430;2022-08-25T14:37:52;99833.70;;;34.74;22.86
30714;BME280;17465;47.934;33.430;2022-08-25T14:40:23;99832.37;;;34.33;24.09
30714;BME280;17465;47.934;33.430;2022-08-25T14:42:54;99824.33;;;33.63;24.56
30714;BME280;17465;47.934;33.430;2022-08-25T14:45:25;99823.73;;;33.28;24.71
30714;BME280;17465;47.934;33.430;2022-08-25T14:48:00;99819.53;;;32.57;25.90
30714;BME280;17465;47.934;33.430;2022-08-25T14:50:32;99819.53;;;32.57;25.90
30714;BME280;17465;47.934;33.430;2022-08-25T14:53:05;99817.09;;;32.29;25.71
30714;BME280;17465;47.934;33.430;2022-08-25T14:55:37;99825.02;;;32.16;27.47
30714;BME280;17465;47.934;33.430;2022-08-25T14:58:11;99831.83;;;32.01;26.69
30714;BME280;17465;47.934;33.430;2022-08-25T15:00:43;99826.66;;;31.91;26.12
30714;BME280;17465;47.934;33.430;2022-08-25T15:03:20;99825.09;;;31.90;27.53
30714;BME280;17465;47.934;33.430;2022-08-25T15:05:52;99830.09;;;31.68;28.25
30714;BME280;17465;47.934;33.430;2022-08-25T15:08:23;99830.09;;;31.68;28.25
30714;BME280;17465;47.934;33.430;2022-08-25T15:10:55;99830.15;;;31.56;28.56